Time;durP1;ratioP1;P1;durP2;ratioP2;P2;SDS_P1;SDS_P2;PMS_P1;PMS_P2;Temp;Humidity;BMP_temperature;BMP_pressure;BME280_temperature;BME280_humidity;BME280_pressure;Samples;Min_cycle;Max_cycle;Signal;HPM_P1;HPM_P2
2022/09/18 00:02:22;;;;;;;3.33;0.98;;;;;;;9.43;100.00;100092.38;5093349;28;20081;-82
2022/09/18 00:04:48;;;;;;;2.55;0.90;;;;;;;9.39;100.00;100094.91;5093940;28;20028;-82
2022/09/18 00:07:14;;;;;;;2.50;0.70;;;;;;;9.35;100.00;100094.78;5111900;28;20042;-83
2022/09/18 00:09:40;;;;;;;5.05;0.98;;;;;;;9.42;100.00;100094.28;5112027;28;20176;-83
2022/09/18 00:12:06;;;;;;;6.10;1.13;;;;;;;9.37;100.00;100096.38;5111869;28;20484;-82
2022/09/18 00:14:31;;;;;;;5.13;1.25;;;;;;;9.35;100.00;100089.34;5112583;28;20059;-83
2022/09/18 00:16:57;;;;;;;3.80;0.85;;;;;;;9.47;100.00;100093.28;5097038;28;20165;-83
2022/09/18 00:19:23;;;;;;;3.90;1.55;;;;;;;9.48;100.00;100081.31;5114974;28;20038;-83
2022/09/18 00:21:50;;;;;;;4.10;1.10;;;;;;;9.39;100.00;100084.03;5115440;28;20031;-82
2022/09/18 00:24:21;;;;;;;4.13;0.88;;;;;;;9.36;100.00;100092.84;5096820;28;20100;-84
2022/09/18 00:26:47;;;;;;;3.35;1.25;;;;;;;9.33;100.00;100097.03;5097335;28;20106;-83
2022/09/18 00:29:13;;;;;;;;;;;;;;;9.34;100.00;100093.19;5098646;28;20020;-82
2022/09/18 00:31:39;;;;;;;3.30;0.82;;;;;;;9.34;100.00;100082.31;5115546;28;19915;-84
2022/09/18 00:34:11;;;;;;;3.72;1.42;;;;;;;9.37;100.00;100089.00;5096657;28;20416;-82
2022/09/18 00:36:42;;;;;;;6.07;1.88;;;;;;;9.34;100.00;100084.25;5115169;28;20028;-83
2022/09/18 00:39:10;;;;;;;3.83;1.75;;;;;;;9.37;100.00;100074.63;5114981;28;20043;-83
2022/09/18 00:41:39;;;;;;;5.80;1.73;;;;;;;9.50;100.00;100079.03;5115234;28;20057;-83
2022/09/18 00:44:47;;;;;;;;;;;;;;;;;;;;;
2022/09/18 00:47:19;;;;;;;3.97;1.27;;;;;;;9.77;100.00;100083.22;5111896;28;20031;-83
2022/09/18 00:50:01;;;;;;;5.57;1.50;;;;;;;9.68;100.00;100080.53;5096371;28;20024;-82
2022/09/18 00:52:33;;;;;;;4.78;1.17;;;;;;;9.65;100.00;100090.16;5079550;28;20051;-83
2022/09/18 00:55:06;;;;;;;6.70;1.50;;;;;;;9.60;100.00;100089.56;5114820;28;20051;-82
2022/09/18 00:57:34;;;;;;;5.38;1.08;;;;;;;9.63;100.00;100086.97;5114998;28;20024;-82
2022/09/18 01:00:06;;;;;;;4.75;1.35;;;;;;;9.62;100.00;100090.03;5114201;28;20023;-82
2022/09/18 01:02:31;;;;;;;5.32;1.00;;;;;;;9.81;100.00;100095.03;5114721;28;20027;-82
2022/09/18 01:04:56;;;;;;;8.30;1.48;;;;;;;9.78;100.00;100091.03;5114323;28;20027;-82
2022/09/18 01:07:24;;;;;;;;;;;;;;;9.79;100.00;100092.63;5115118;28;20448;-81
2022/09/18 01:10:09;;;;;;;4.88;1.00;;;;;;;9.70;100.00;100089.16;5096216;28;19930;-82
2022/09/18 01:12:45;;;;;;;3.55;1.10;;;;;;;9.69;100.00;100087.56;5096200;28;20482;-82
2022/09/18 01:15:22;;;;;;;13.52;1.40;;;;;;;9.62;100.00;100095.47;5095888;28;20066;-81
2022/09/18 01:17:59;;;;;;;4.97;1.40;;;;;;;9.70;100.00;100089.16;5095697;28;20475;-82
2022/09/18 01:20:36;;;;;;;6.30;1.60;;;;;;;9.66;100.00;100099.09;5095762;28;20038;-81
2022/09/18 01:23:20;;;;;;;4.38;1.20;;;;;;;9.70;100.00;100089.16;5114355;28;20104;-81
2022/09/18 01:25:54;;;;;;;7.78;1.23;;;;;;;9.71;100.00;100092.66;5113942;28;20033;-81
2022/09/18 01:29:00;;;;;;;6.03;2.25;;;;;;;9.70;100.00;100097.31;5113998;28;20092;-82
2022/09/18 01:31:44;;;;;;;5.03;1.15;;;;;;;9.74;100.00;100092.00;5110564;28;20031;-81
2022/09/18 01:34:19;;;;;;;5.82;1.58;;;;;;;9.70;100.00;100089.16;5095354;28;20111;-83
2022/09/18 01:36:53;;;;;;;5.75;1.58;;;;;;;9.88;100.00;100090.63;5108315;28;20035;-81
2022/09/18 01:39:38;;;;;;;4.50;1.08;;;;;;;9.73;100.00;100083.06;5113581;28;20047;-82
2022/09/18 01:42:08;;;;;;;3.88;1.48;;;;;;;9.72;100.00;100086.91;5094297;28;20114;-81
2022/09/18 01:44:36;;;;;;;4.30;1.23;;;;;;;9.74;100.00;100081.13;5113808;28;20019;-82
2022/09/18 01:47:07;;;;;;;6.32;2.03;;;;;;;9.74;100.00;100083.84;5113417;28;20405;-81
2022/09/18 01:49:38;;;;;;;7.30;1.77;;;;;;;9.72;100.00;100081.47;5095031;28;20024;-80
2022/09/18 01:52:31;;;;;;;4.50;1.60;;;;;;;9.72;100.00;100076.03;5095821;28;20035;-81
2022/09/18 01:54:59;;;;;;;4.10;1.63;;;;;;;9.81;100.00;100074.06;5093340;28;20072;-81
2022/09/18 01:57:32;;;;;;;8.75;1.10;;;;;;;9.78;100.00;100072.00;5078333;28;20019;-80
2022/09/18 02:00:09;;;;;;;5.28;1.27;;;;;;;9.75;100.00;100069.94;5078751;28;20126;-80
2022/09/18 02:02:44;;;;;;;3.95;1.10;;;;;;;9.76;100.00;100066.09;5094314;28;20049;-81
2022/09/18 02:05:19;;;;;;;3.58;1.10;;;;;;;9.79;100.00;100065.44;5095338;28;20153;-81
2022/09/18 02:07:49;;;;;;;4.85;1.20;;;;;;;9.80;100.00;100075.19;5113323;28;20103;-82
2022/09/18 02:10:18;;;;;;;4.20;0.90;;;;;;;9.77;100.00;100078.56;5113119;28;20149;-82
2022/09/18 02:12:46;;;;;;;3.72;1.17;;;;;;;9.76;100.00;100071.53;5112984;28;20023;-81
2022/09/18 02:15:15;;;;;;;4.00;1.75;;;;;;;9.77;100.00;100067.69;5112654;28;20119;-81
2022/09/18 02:17:53;;;;;;;4.30;0.82;;;;;;;9.72;100.00;100061.63;5094962;28;20081;-82
2022/09/18 02:20:23;;;;;;;5.05;1.10;;;;;;;9.68;100.00;100069.66;5094554;28;20407;-82
2022/09/18 02:22:51;;;;;;;2.90;1.20;;;;;;;9.62;100.00;100069.06;5095025;28;20031;-83
2022/09/18 02:25:26;;;;;;;4.47;1.50;;;;;;;9.54;100.00;100072.63;5112832;28;20050;-84
2022/09/18 02:27:55;;;;;;;4.03;0.93;;;;;;;9.55;100.00;100076.94;5095475;28;20050;-82
2022/09/18 02:30:21;;;;;;;6.15;1.27;;;;;;;9.57;100.00;100061.13;5094332;28;20117;-83
2022/09/18 02:32:52;;;;;;;4.75;1.73;;;;;;;9.61;100.00;100048.44;5112546;28;20042;-83
2022/09/18 02:35:17;;;;;;;7.00;1.38;;;;;;;9.61;100.00;100045.72;5094245;28;20034;-83
2022/09/18 02:38:08;;;;;;;2.70;1.13;;;;;;;9.63;100.00;100045.41;5111598;28;20023;-82
2022/09/18 02:40:45;;;;;;;4.50;1.73;;;;;;;9.73;100.00;100061.31;5094012;28;20040;-84
2022/09/18 02:43:34;;;;;;;4.85;1.58;;;;;;;9.62;100.00;100057.41;5112576;28;20040;-83
2022/09/18 02:46:08;;;;;;;5.55;1.63;;;;;;;9.61;100.00;100067.47;5112787;28;20106;-82
2022/09/18 02:49:06;;;;;;;4.70;1.60;;;;;;;9.78;100.00;100055.69;5112751;28;20047;-81
2022/09/18 02:51:36;;;;;;;6.10;1.83;;;;;;;9.71;100.00;100058.13;5060460;28;20027;-81
2022/09/18 02:54:10;;;;;;;6.60;1.50;;;;;;;9.82;100.00;100053.09;5094229;28;20080;-81
2022/09/18 02:56:45;;;;;;;7.72;2.00;;;;;;;9.68;100.00;100055.28;5094265;28;20019;-82
2022/09/18 02:59:22;;;;;;;4.70;1.58;;;;;;;9.75;100.00;100059.06;5112282;28;20472;-82
2022/09/18 03:01:51;;;;;;;5.18;1.42;;;;;;;9.80;100.00;100053.44;5112356;28;20023;-82
2022/09/18 03:04:22;;;;;;;4.30;2.13;;;;;;;9.70;100.00;100051.09;5112308;28;20115;-83
2022/09/18 03:06:49;;;;;;;3.88;1.55;;;;;;;9.69;100.00;100051.44;5077234;28;20555;-82
2022/09/18 03:09:18;;;;;;;5.95;2.15;;;;;;;9.61;100.00;100051.16;5112211;28;20053;-81
2022/09/18 03:11:44;;;;;;;4.40;2.00;;;;;;;9.56;100.00;100039.66;5094003;28;20103;-80
2022/09/18 03:14:10;;;;;;;5.95;1.70;;;;;;;9.58;100.00;100032.00;5112232;28;20153;-81
2022/09/18 03:16:35;;;;;;;4.13;1.67;;;;;;;9.54;100.00;100045.44;5112540;28;20058;-81
2022/09/18 03:19:02;;;;;;;7.13;1.80;;;;;;;9.56;100.00;100037.75;5111860;28;20187;-80
2022/09/18 03:21:30;;;;;;;6.03;1.92;;;;;;;9.53;100.00;100043.84;5094357;28;20365;-78
2022/09/18 03:23:56;;;;;;;5.00;2.03;;;;;;;9.59;100.00;100039.03;5093849;28;20024;-78
2022/09/18 03:26:22;;;;;;;4.82;1.98;;;;;;;9.54;100.00;100041.91;5094048;28;20023;-78
2022/09/18 03:28:50;;;;;;;5.55;2.08;;;;;;;9.54;100.00;100042.72;5112044;28;20472;-79
2022/09/18 03:31:15;;;;;;;4.68;2.05;;;;;;;9.52;100.00;100038.75;5112008;28;20020;-79
2022/09/18 03:33:41;;;;;;;5.77;2.23;;;;;;;9.55;100.00;100035.34;5093669;28;20134;-79
2022/09/18 03:36:10;;;;;;;9.50;3.55;;;;;;;9.50;100.00;100041.00;5111759;28;20472;-79
2022/09/18 03:38:39;;;;;;;4.40;1.98;;;;;;;9.48;100.00;100041.31;5111742;28;20434;-79
2022/09/18 03:41:06;;;;;;;5.57;2.00;;;;;;;9.48;100.00;100044.03;5111782;28;20042;-79
2022/09/18 03:43:31;;;;;;;6.50;1.98;;;;;;;9.51;100.00;100037.16;5112141;28;20052;-80
2022/09/18 03:45:57;;;;;;;5.57;2.70;;;;;;;9.48;100.00;100044.03;5111631;28;20130;-80
2022/09/18 03:48:22;;;;;;;6.28;1.90;;;;;;;9.48;100.00;100043.25;5112017;28;20047;-80
2022/09/18 03:50:48;;;;;;;4.80;2.05;;;;;;;9.45;100.00;100035.75;5097226;28;20023;-79
2022/09/18 03:53:14;;;;;;;8.45;2.40;;;;;;;9.44;100.00;100042.31;5097279;28;20035;-80
2022/09/18 03:55:45;;;;;;;7.35;2.15;;;;;;;9.43;100.00;100030.66;5114834;28;20042;-80
2022/09/18 03:58:13;;;;;;;7.20;2.30;;;;;;;9.40;100.00;100031.28;5097311;28;20034;-80
2022/09/18 04:00:38;;;;;;;6.90;2.90;;;;;;;9.39;100.00;100028.91;5115884;28;20027;-80
2022/09/18 04:03:03;;;;;;;4.93;2.40;;;;;;;9.39;100.00;100023.47;5115380;28;20556;-79
2022/09/18 04:05:29;;;;;;;6.25;2.95;;;;;;;9.40;100.00;100030.50;5115393;28;20072;-79
2022/09/18 04:07:54;;;;;;;8.88;2.80;;;;;;;9.39;100.00;100037.06;5096947;28;20034;-79
2022/09/18 04:10:20;;;;;;;7.88;1.98;;;;;;;9.40;100.00;100044.06;5115081;28;20023;-79
2022/09/18 04:12:46;;;;;;;7.10;2.58;;;;;;;9.40;100.00;100035.94;5097073;28;20065;-80
2022/09/18 04:15:13;;;;;;;10.77;3.42;;;;;;;9.40;100.00;100033.22;5115618;28;20039;-81
2022/09/18 04:17:38;;;;;;;6.93;2.58;;;;;;;9.38;100.00;100027.31;5115662;28;20027;-80
2022/09/18 04:20:06;;;;;;;8.25;3.50;;;;;;;9.38;100.00;100021.88;5114844;28;20034;-80
2022/09/18 04:22:32;;;;;;;7.53;2.58;;;;;;;9.36;100.00;100027.63;5096919;28;20042;-81
2022/09/18 04:24:57;;;;;;;13.05;2.92;;;;;;;9.36;100.00;100033.06;5115272;28;20019;-82
2022/09/18 04:27:23;;;;;;;10.40;2.50;;;;;;;9.35;100.00;100018.69;5115033;28;20376;-81
2022/09/18 04:29:48;;;;;;;7.88;2.47;;;;;;;9.60;100.00;100030.53;5114966;28;20115;-80
2022/09/18 04:32:13;;;;;;;4.57;2.13;;;;;;;9.47;100.00;100033.50;5114805;28;20031;-81
2022/09/18 04:34:39;;;;;;;10.73;3.25;;;;;;;9.37;100.00;100025.72;5115126;28;20314;-82
2022/09/18 04:37:04;;;;;;;5.30;1.93;;;;;;;9.37;100.00;100020.28;5114776;28;20032;-81
2022/09/18 04:39:33;;;;;;;5.25;2.30;;;;;;;9.36;100.00;100030.34;5114106;28;20293;-81
2022/09/18 04:42:02;;;;;;;4.95;1.77;;;;;;;9.34;100.00;100036.13;5114903;28;20042;-81
2022/09/18 04:44:28;;;;;;;7.53;1.88;;;;;;;9.33;100.00;100031.81;5114503;28;20043;-80
2022/09/18 04:46:53;;;;;;;3.63;1.40;;;;;;;9.33;100.00;100031.81;5114580;28;20020;-80
2022/09/18 04:49:18;;;;;;;8.87;2.43;;;;;;;9.29;100.00;100036.31;5114761;28;20042;-80
2022/09/18 04:51:44;;;;;;;6.38;2.10;;;;;;;9.27;100.00;100035.84;5114567;28;20698;-80
2022/09/18 04:54:09;;;;;;;4.15;1.80;;;;;;;9.31;100.00;100034.06;5095684;28;20039;-81
2022/09/18 04:56:39;;;;;;;6.65;2.17;;;;;;;9.30;100.00;100026.25;5095835;28;20035;-80
2022/09/18 04:59:04;;;;;;;7.32;1.88;;;;;;;9.28;100.00;100033.94;5113473;28;20036;-81
2022/09/18 05:01:30;;;;;;;4.37;1.50;;;;;;;9.31;100.00;100033.28;5094815;28;20038;-80
2022/09/18 05:03:56;;;;;;;3.40;1.20;;;;;;;9.34;100.00;100024.47;5095985;28;20287;-81
2022/09/18 05:06:23;;;;;;;4.50;1.50;;;;;;;9.30;100.00;100026.25;5113479;28;20031;-81
2022/09/18 05:08:48;;;;;;;4.70;1.60;;;;;;;9.29;100.00;100025.44;5095591;28;20418;-81
2022/09/18 05:11:14;;;;;;;3.55;1.20;;;;;;;9.34;100.00;100027.19;5113859;28;20102;-80
2022/09/18 05:13:40;;;;;;;5.40;1.48;;;;;;;9.41;100.00;100018.53;5113708;28;20035;-81
2022/09/18 05:16:06;;;;;;;4.30;1.50;;;;;;;9.35;100.00;100017.91;5114275;28;20024;-80
2022/09/18 05:18:31;;;;;;;;;;;;;;;9.41;100.00;100019.31;5095989;28;20028;-79
2022/09/18 05:21:04;;;;;;;4.10;1.75;;;;;;;9.50;100.00;100021.97;5095420;28;19912;-80
2022/09/18 05:23:29;;;;;;;4.35;1.98;;;;;;;9.45;100.00;100022.16;5113845;28;20031;-81
2022/09/18 05:25:55;;;;;;;4.47;1.55;;;;;;;9.44;100.00;100032.25;5113746;28;20221;-80
2022/09/18 05:28:21;;;;;;;5.20;1.45;;;;;;;9.51;100.00;100031.72;5095158;28;20032;-80
2022/09/18 05:30:48;;;;;;;6.78;2.15;;;;;;;9.48;100.00;100027.75;5095131;28;20020;-81
2022/09/18 05:33:14;;;;;;;9.25;2.65;;;;;;;9.45;100.00;100031.13;5095622;28;20502;-81
2022/09/18 05:35:39;;;;;;;6.43;2.97;;;;;;;9.47;100.00;100037.00;5113512;28;20031;-80
2022/09/18 05:38:05;;;;;;;8.73;2.70;;;;;;;9.48;100.00;100026.94;5095210;28;20764;-81
2022/09/18 05:40:34;;;;;;;7.32;2.60;;;;;;;9.52;100.00;100038.75;5112999;28;20526;-80
2022/09/18 05:43:04;;;;;;;6.88;3.13;;;;;;;9.56;100.00;100034.22;5113854;28;20035;-78
2022/09/18 05:45:29;;;;;;;7.10;3.15;;;;;;;9.50;100.00;100030.13;5113514;28;20456;-78
2022/09/18 05:48:00;;;;;;;12.27;3.30;;;;;;;9.59;100.00;100033.59;5113216;27;20023;-78
2022/09/18 05:50:30;;;;;;;9.13;3.45;;;;;;;9.59;100.00;100030.88;5113682;28;20048;-78
2022/09/18 05:53:04;;;;;;;7.47;3.33;;;;;;;9.63;100.00;100031.81;5113378;28;20016;-78
2022/09/18 05:55:33;;;;;;;8.85;2.80;;;;;;;9.58;100.00;100027.38;5113402;28;20027;-80
2022/09/18 05:58:01;;;;;;;7.63;2.75;;;;;;;9.60;100.00;100035.19;5112691;28;20042;-79
2022/09/18 06:00:28;;;;;;;7.78;2.85;;;;;;;9.53;100.00;100029.47;5112834;28;20066;-80
2022/09/18 06:02:59;;;;;;;7.18;3.22;;;;;;;9.55;100.00;100035.34;5094549;28;20028;-78
2022/09/18 06:05:25;;;;;;;7.85;3.10;;;;;;;9.54;100.00;100039.19;5094652;28;20101;-81
2022/09/18 06:07:50;;;;;;;;;;;;;;;9.60;100.00;100030.53;5113595;28;20030;-80
2022/09/18 06:10:19;;;;;;;7.32;2.72;;;;;;;9.56;100.00;100029.59;5113161;28;20002;-82
2022/09/18 06:12:45;;;;;;;8.35;3.42;;;;;;;9.62;100.00;100027.50;5112871;28;20034;-82
2022/09/18 06:15:12;;;;;;;7.10;2.65;;;;;;;9.60;100.00;100030.53;5113147;28;20031;-81
2022/09/18 06:17:41;;;;;;;12.75;3.15;;;;;;;9.72;100.00;100043.41;5094566;28;20036;-80
2022/09/18 06:20:07;;;;;;;5.78;2.40;;;;;;;9.69;100.00;100041.34;5093919;28;20036;-79
2022/09/18 06:22:34;;;;;;;5.95;2.30;;;;;;;9.79;100.00;100040.97;5094301;28;20023;-79
2022/09/18 06:24:59;;;;;;;4.95;2.20;;;;;;;9.75;100.00;100037.31;5094003;28;20131;-79
2022/09/18 06:27:25;;;;;;;6.63;2.45;;;;;;;9.95;100.00;100033.00;5077400;28;20110;-78
2022/09/18 06:29:51;;;;;;;6.43;2.40;;;;;;;9.90;100.00;100033.19;5112758;28;20077;-78
2022/09/18 06:32:19;;;;;;;6.38;2.40;;;;;;;9.82;100.00;100023.19;5112765;28;20098;-79
2022/09/18 06:34:45;;;;;;;7.10;2.25;;;;;;;9.82;100.00;100037.59;5093939;28;20109;-79
2022/09/18 06:37:11;;;;;;;6.05;2.55;;;;;;;9.86;100.00;100037.72;5112638;28;20024;-78
2022/09/18 06:39:39;;;;;;;5.40;2.22;;;;;;;9.98;100.00;100032.34;5094496;28;20071;-78
2022/09/18 06:42:05;;;;;;;5.68;1.92;;;;;;;10.08;100.00;100033.88;5094153;28;20428;-78
2022/09/18 06:44:31;;;;;;;6.25;2.15;;;;;;;9.99;100.00;100035.84;5094176;28;20038;-78
2022/09/18 06:46:56;;;;;;;8.23;2.57;;;;;;;9.85;100.00;100039.63;5112338;28;20118;-78
2022/09/18 06:49:23;;;;;;;8.00;2.53;;;;;;;9.90;100.00;100033.97;5094239;28;20296;-78
2022/09/18 06:51:48;;;;;;;6.75;2.28;;;;;;;10.00;100.00;100032.81;5094709;28;20100;-78
2022/09/18 06:54:15;;;;;;;9.98;2.90;;;;;;;9.86;100.00;100032.28;5093423;28;20040;-77
2022/09/18 06:56:41;;;;;;;5.95;2.67;;;;;;;9.82;100.00;100039.50;5112490;28;20438;-76
2022/09/18 06:59:08;;;;;;;5.07;1.88;;;;;;;9.79;100.00;100046.41;5112414;28;20024;-77
2022/09/18 07:01:35;;;;;;;4.75;1.92;;;;;;;9.75;100.00;100047.41;5093904;28;20040;-77
2022/09/18 07:04:00;;;;;;;8.35;2.25;;;;;;;9.76;100.00;100040.84;5093948;28;20035;-78
2022/09/18 07:06:26;;;;;;;3.97;1.60;;;;;;;9.82;100.00;100037.59;5112094;28;20459;-77
2022/09/18 07:08:52;;;;;;;7.40;1.90;;;;;;;9.75;100.00;100031.88;5112382;28;20035;-77
2022/09/18 07:11:17;;;;;;;8.18;2.53;;;;;;;9.85;100.00;100026.03;5093920;28;20111;-76
2022/09/18 07:13:43;;;;;;;5.67;1.80;;;;;;;9.83;100.00;100022.84;5112228;28;20058;-77
2022/09/18 07:16:08;;;;;;;6.53;2.63;;;;;;;9.78;100.00;100031.22;5111392;28;20761;-78
2022/09/18 07:18:34;;;;;;;4.40;1.95;;;;;;;9.84;100.00;100027.16;5112543;28;20375;-77
2022/09/18 07:21:00;;;;;;;6.60;1.95;;;;;;;9.95;100.00;100022.13;5111752;28;20111;-77
2022/09/18 07:23:28;;;;;;;4.35;1.75;;;;;;;10.01;100.00;100014.56;5112584;28;20039;-77
2022/09/18 07:25:53;;;;;;;5.88;1.77;;;;;;;9.92;100.00;100015.44;5097759;28;20034;-77
2022/09/18 07:28:18;;;;;;;3.33;1.52;;;;;;;9.87;100.00;100012.09;5116367;28;20019;-77
2022/09/18 07:30:45;;;;;;;4.47;1.40;;;;;;;9.93;100.00;100010.78;5116430;28;20420;-77
2022/09/18 07:33:12;;;;;;;3.47;1.23;;;;;;;9.95;100.00;100019.41;5116405;28;20254;-77
2022/09/18 07:35:37;;;;;;;3.05;1.15;;;;;;;9.90;100.00;100014.16;5097755;28;20026;-77
2022/09/18 07:38:05;;;;;;;2.70;1.02;;;;;;;9.92;100.00;100023.59;5116482;28;20386;-77
2022/09/18 07:40:30;;;;;;;3.58;1.08;;;;;;;9.86;100.00;100015.94;5097529;28;20048;-77
2022/09/18 07:43:01;;;;;;;1.77;0.73;;;;;;;9.87;100.00;100018.34;5115779;28;20030;-77
2022/09/18 07:45:26;;;;;;;1.90;0.70;;;;;;;9.94;100.00;100009.66;5097701;28;20389;-76
2022/09/18 07:47:51;;;;;;;1.90;0.75;;;;;;;9.96;100.00;100004.69;5115830;28;20061;-76
2022/09/18 07:50:18;;;;;;;2.70;1.23;;;;;;;10.06;100.00;100003.47;5097168;28;20421;-77
2022/09/18 07:52:55;;;;;;;1.77;0.85;;;;;;;10.15;100.00;100005.00;5096970;28;20058;-77
2022/09/18 07:55:23;;;;;;;3.95;0.70;;;;;;;10.34;100.00;100003.72;5097298;28;20080;-77
2022/09/18 07:58:00;;;;;;;2.58;0.80;;;;;;;10.43;100.00;99997.06;5115836;28;20027;-78
2022/09/18 08:00:27;;;;;;;4.53;0.90;;;;;;;10.36;100.00;100010.41;5115638;28;20069;-77
2022/09/18 08:03:02;;;;;;;2.85;1.10;;;;;;;10.47;100.00;100003.44;5115500;28;20038;-78
2022/09/18 08:05:27;;;;;;;3.45;1.00;;;;;;;10.59;100.00;99999.16;5115364;28;20023;-79
2022/09/18 08:07:52;;;;;;;1.98;0.75;;;;;;;10.51;100.00;100008.97;5097109;28;20119;-79
2022/09/18 08:10:18;;;;;;;3.83;1.00;;;;;;;10.48;100.00;100007.75;5091888;28;20051;-78
2022/09/18 08:12:43;;;;;;;5.37;1.70;;;;;;;10.48;100.00;100013.19;5096871;28;20394;-79
2022/09/18 08:15:09;;;;;;;2.73;1.10;;;;;;;10.45;100.00;100007.63;5096824;28;20373;-79
2022/09/18 08:17:34;;;;;;;4.30;1.17;;;;;;;10.46;100.00;100001.84;5096397;28;20292;-78
2022/09/18 08:20:01;;;;;;;3.53;1.50;;;;;;;10.45;100.00;100005.69;5115044;28;20193;-77
2022/09/18 08:22:26;;;;;;;3.20;1.17;;;;;;;10.43;100.00;100007.16;5114735;28;20277;-78
2022/09/18 08:24:51;;;;;;;2.90;1.37;;;;;;;10.42;100.00;100014.53;5115120;28;20023;-77
2022/09/18 08:27:17;;;;;;;2.80;1.13;;;;;;;10.29;100.00;100017.53;5114902;28;20438;-77
2022/09/18 08:29:42;;;;;;;5.67;1.47;;;;;;;10.28;100.00;100027.63;5114800;28;20746;-77
2022/09/18 08:32:09;;;;;;;5.63;1.77;;;;;;;10.46;100.00;100017.38;5114814;28;20027;-77
2022/09/18 08:34:34;;;;;;;5.40;1.67;;;;;;;10.39;100.00;100007.03;5114175;28;20168;-78
2022/09/18 08:37:00;;;;;;;5.73;1.60;;;;;;;10.44;100.00;100015.00;5113838;28;20123;-78
2022/09/18 08:39:25;;;;;;;4.85;1.73;;;;;;;10.59;100.00;100016.28;5114535;28;20115;-78
2022/09/18 08:42:06;;;;;;;3.78;1.75;;;;;;;10.52;100.00;100016.81;5114651;28;20035;-78
2022/09/18 08:44:45;;;;;;;3.60;1.58;;;;;;;10.54;100.00;100013.75;5096498;28;20503;-77
2022/09/18 08:47:20;;;;;;;4.60;1.40;;;;;;;10.49;100.00;100022.94;5114881;28;20074;-77
2022/09/18 08:49:52;;;;;;;3.70;1.38;;;;;;;10.55;100.00;100021.59;5114477;28;20468;-78
2022/09/18 08:52:27;;;;;;;4.43;1.42;;;;;;;10.50;100.00;100013.63;5114576;28;20024;-79
2022/09/18 08:55:29;;;;;;;3.55;1.38;;;;;;;10.51;100.00;100015.22;5114628;28;20027;-77
2022/09/18 08:58:02;;;;;;;3.65;1.05;;;;;;;10.34;100.00;100020.06;5096058;28;20502;-78
2022/09/18 09:00:39;;;;;;;2.85;1.13;;;;;;;10.48;100.00;100004.22;5114606;28;20020;-78
2022/09/18 09:03:16;;;;;;;4.72;1.25;;;;;;;10.61;100.00;100002.31;5114509;28;20050;-78
2022/09/18 09:05:51;;;;;;;4.07;1.38;;;;;;;10.69;100.00;100001.41;5114562;28;20106;-77
2022/09/18 09:08:50;;;;;;;2.92;1.25;;;;;;;10.74;100.00;99998.47;5095950;28;20023;-79
2022/09/18 09:11:28;;;;;;;3.80;1.30;;;;;;;10.71;100.00;99991.78;5095318;28;20028;-76
2022/09/18 09:14:01;;;;;;;3.22;1.08;;;;;;;10.70;100.00;99984.75;5114159;28;20055;-77
2022/09/18 09:16:41;;;;;;;4.15;1.20;;;;;;;10.78;100.00;99969.44;5113974;28;20083;-77
2022/09/18 09:19:46;;;;;;;2.33;1.13;;;;;;;10.85;100.00;99977.84;5114307;28;20042;-77
2022/09/18 09:22:29;;;;;;;3.38;1.25;;;;;;;10.79;100.00;99974.56;5099306;28;20108;-76
2022/09/18 09:25:30;;;;;;;6.80;1.50;;;;;;;10.73;100.00;99978.63;5113648;28;20564;-77
2022/09/18 09:28:15;;;;;;;2.53;1.23;;;;;;;10.67;100.00;99976.47;5057022;28;20035;-77
2022/09/18 09:30:43;;;;;;;4.75;1.63;;;;;;;10.68;100.00;99972.59;5095242;28;20031;-77
2022/09/18 09:33:14;;;;;;;6.20;1.30;;;;;;;10.71;100.00;99974.66;5113323;28;20483;-77
2022/09/18 09:35:47;;;;;;;3.67;1.63;;;;;;;10.69;100.00;99977.72;5113359;28;20039;-77
2022/09/18 09:38:46;;;;;;;3.75;1.52;;;;;;;10.76;100.00;99977.16;5095403;28;20475;-77
2022/09/18 09:41:24;;;;;;;4.55;1.77;;;;;;;10.76;100.00;99975.25;5113158;28;20043;-77
2022/09/18 09:44:12;;;;;;;5.43;2.10;;;;;;;10.69;100.00;99971.47;5113727;28;20033;-77
2022/09/18 09:47:01;;;;;;;8.40;2.47;;;;;;;10.76;100.00;99977.16;5112822;28;20102;-77
2022/09/18 09:49:37;;;;;;;6.70;2.30;;;;;;;10.69;100.00;99972.25;5065537;28;20031;-77
2022/09/18 09:52:25;;;;;;;4.70;1.85;;;;;;;10.68;100.00;99967.16;5113311;28;20023;-78
2022/09/18 09:54:56;;;;;;;6.97;2.03;;;;;;;10.63;100.00;99964.66;5092455;28;20027;-78
2022/09/18 09:57:33;;;;;;;8.55;2.08;;;;;;;10.63;100.00;99967.38;5094671;28;20038;-76
2022/09/18 10:00:18;;;;;;;6.70;3.35;;;;;;;10.61;100.00;99962.28;5094685;28;20114;-77
2022/09/18 10:02:49;;;;;;;3.40;1.45;;;;;;;10.62;100.00;99966.59;5094767;28;20051;-77
2022/09/18 10:05:27;;;;;;;5.90;1.38;;;;;;;10.71;100.00;99967.25;5113436;28;20107;-77
2022/09/18 10:08:08;;;;;;;4.50;1.80;;;;;;;10.68;100.00;99961.72;5113886;28;20487;-77
2022/09/18 10:10:55;;;;;;;5.40;2.10;;;;;;;10.63;100.00;99962.72;5113615;28;20084;-78
2022/09/18 10:13:25;;;;;;;5.57;2.00;;;;;;;10.60;100.00;99957.19;5113300;28;20395;-77
2022/09/18 10:15:58;;;;;;;6.40;2.28;;;;;;;10.59;100.00;99966.47;5113275;28;20470;-77
2022/09/18 10:18:29;;;;;;;5.03;1.92;;;;;;;10.59;100.00;99971.94;5094332;28;20027;-76
2022/09/18 10:21:06;;;;;;;3.75;1.70;;;;;;;10.54;100.00;99987.31;5112611;28;20015;-77
2022/09/18 10:23:53;;;;;;;;;;;;;;;10.10;100.00;99982.66;5079347;28;20027;-77
2022/09/18 10:26:30;;;;;;;2.22;0.50;;;;;;;9.69;100.00;99967.94;5054187;28;19960;-77
2022/09/18 10:28:55;;;;;;;2.13;0.90;;;;;;;9.54;100.00;99971.25;5112612;28;20114;-77
2022/09/18 10:31:21;;;;;;;1.70;0.50;;;;;;;9.46;100.00;99974.84;5094142;28;20149;-78
2022/09/18 10:33:50;;;;;;;1.38;0.70;;;;;;;9.39;100.00;99975.34;5094066;28;20388;-78
2022/09/18 10:36:34;;;;;;;2.28;0.50;;;;;;;9.29;100.00;99970.31;5112687;28;20085;-81
2022/09/18 10:38:59;;;;;;;1.90;0.65;;;;;;;9.33;100.00;99980.19;5112531;28;20051;-79
2022/09/18 10:41:28;;;;;;;1.95;0.63;;;;;;;9.36;100.00;99973.28;5094435;28;20468;-82
2022/09/18 10:44:11;;;;;;;2.25;0.73;;;;;;;9.36;100.00;99978.72;5112365;28;20031;-79
2022/09/18 10:46:49;;;;;;;2.83;0.93;;;;;;;9.48;100.00;99975.31;5112523;28;20062;-80
2022/09/18 10:49:22;;;;;;;1.42;0.50;;;;;;;9.56;100.00;99969.00;5094498;28;20032;-79
2022/09/18 10:52:02;;;;;;;2.25;0.70;;;;;;;9.64;100.00;99968.94;5094155;28;20027;-80
2022/09/18 10:54:30;;;;;;;1.70;0.60;;;;;;;9.62;100.00;99970.41;5112776;28;20387;-80
2022/09/18 10:57:21;;;;;;;3.83;0.60;;;;;;;9.80;100.00;99974.56;5077671;28;20031;-80
2022/09/18 10:59:47;;;;;;;1.55;0.63;;;;;;;9.72;100.00;99964.56;5096297;28;20032;-80
2022/09/18 11:02:19;;;;;;;1.83;0.60;;;;;;;9.59;100.00;99952.03;5112669;28;20038;-80
2022/09/18 11:04:46;;;;;;;4.60;0.60;;;;;;;9.56;100.00;99955.41;5112658;28;20785;-83
2022/09/18 11:07:12;;;;;;;3.05;0.60;;;;;;;9.61;100.00;99958.75;5094276;28;20404;-80
2022/09/18 11:09:39;;;;;;;4.05;0.93;;;;;;;9.67;100.00;99951.16;5094172;28;20015;-80
2022/09/18 11:12:14;;;;;;;4.70;0.85;;;;;;;9.71;100.00;99957.53;5112773;28;20498;-83
2022/09/18 11:14:45;;;;;;;2.10;0.82;;;;;;;9.80;100.00;99955.53;5094338;28;20019;-81
2022/09/18 11:17:21;;;;;;;6.53;1.80;;;;;;;9.98;100.00;99958.09;5112743;28;20111;-81
2022/09/18 11:19:57;;;;;;;2.90;1.15;;;;;;;10.09;100.00;99945.69;5112553;28;20487;-81
2022/09/18 11:22:43;;;;;;;5.57;1.08;;;;;;;10.11;100.00;99965.19;5094853;28;20438;-81
2022/09/18 11:25:22;;;;;;;6.93;1.20;;;;;;;10.23;100.00;99965.25;5112356;28;20019;-80
2022/09/18 11:27:51;;;;;;;6.43;1.55;;;;;;;10.23;100.00;99955.16;5112797;28;20050;-80
2022/09/18 11:30:25;;;;;;;3.85;1.55;;;;;;;10.30;100.00;99948.38;5094369;28;20115;-80
2022/09/18 11:33:01;;;;;;;4.07;1.73;;;;;;;10.36;100.00;99952.47;5112552;28;20095;-79
2022/09/18 11:35:28;;;;;;;6.20;1.45;;;;;;;10.37;100.00;99948.59;5094267;28;20050;-80
2022/09/18 11:37:58;;;;;;;3.83;1.42;;;;;;;10.40;100.00;99956.88;5112264;28;20039;-80
2022/09/18 11:40:30;;;;;;;4.13;1.50;;;;;;;10.54;100.00;99953.84;5112033;28;20047;-79
2022/09/18 11:42:58;;;;;;;3.97;1.85;;;;;;;10.49;100.00;99952.16;5112673;28;20023;-81
2022/09/18 11:45:38;;;;;;;3.80;1.70;;;;;;;10.44;100.00;99949.66;5094170;28;20069;-81